Date,TemperatureHighF,TemperatureAvgF,TemperatureLowF,DewpointHighF,DewpointAvgF,DewpointLowF,HumidityHigh,HumidityAvg,HumidityLow,PressureMaxIn,PressureMinIn,WindSpeedMaxMPH,WindSpeedAvgMPH,GustSpeedMaxMPH,PrecipitationSumIn
2013-1-1,53,50,46,51,48,42,97,91,87,30.24,30.09,11,2,11,0.02
2013-1-2,46,42,38,42,38,35,90,87,83,30.36,30.21,8,1,9,0.00
2013-1-3,57,43,31,42,36,29,95,77,42,30.46,30.34,9,1,10,0.01
2013-1-4,48,44,40,42,39,37,92,81,67,30.55,30.38,8,0,8,0.00
2013-1-5,45,44,42,45,42,39,97,95,79,30.44,30.30,5,0,6,0.95
2013-1-6,59,46,31,47,41,29,97,86,58,30.39,30.29,9,1,13,0.01
2013-1-7,60,42,26,47,37,24,97,83,57,30.38,30.16,5,0,8,0.00
2013-1-8,62,54,44,61,52,42,98,95,89,30.16,29.96,5,0,7,0.37
2013-1-9,66,63,60,65,63,59,99,98,98,30.09,29.89,22,0,22,1.15
2013-1-10,70,59,46,64,58,44,99,96,68,30.13,29.97,9,0,14,0.05
2013-1-11,76,57,40,62,52,38,98,85,50,30.08,29.93,7,1,10,0.00
2013-1-12,74,72,63,71,70,62,98,93,86,29.94,29.75,15,4,19,0.16
2013-1-13,71,48,41,70,46,40,97,92,80,30.19,29.81,13,3,14,0.63
2013-1-14,44,41,38,41,38,36,95,91,88,30.30,30.12,10,2,13,0.06
2013-1-15,39,36,34,37,34,33,95,94,91,30.21,30.08,10,2,12,0.08
2013-1-16,52,40,27,37,32,25,95,77,39,30.32,30.18,12,2,12,0.00
2013-1-17,63,40,23,42,31,21,96,75,36,30.51,30.31,10,1,11,0.00
2013-1-18,64,42,26,45,33,25,97,76,34,30.58,30.41,6,0,8,0.01
2013-1-19,67,42,27,51,37,25,97,83,48,30.41,30.23,5,0,6,0.00
2013-1-20,72,50,36,58,44,35,100,83,48,30.31,30.15,4,0,5,0.01
2013-1-21,73,49,37,56,43,35,97,83,49,30.29,30.19,6,0,7,0.00
2013-1-25,78,66,56,64,61,54,98,86,58,30.24,30.11,4,1,12,0.00
2013-1-26,78,64,55,65,58,53,97,85,56,30.25,30.14,3,1,12,0.01
2013-1-27,68,68,67,65,65,64,92,91,90,30.14,30.13,8,2,8,0.00
2013-1-28,80,70,65,69,66,63,95,86,61,30.17,30.03,13,2,17,0.00
2013-1-29,74,71,58,71,68,56,95,91,84,30.03,29.66,16,4,19,0.45
2013-1-30,58,50,31,56,38,29,96,67,37,30.27,29.78,20,3,24,0.01
2013-1-31,68,45,26,42,32,25,97,67,23,30.37,30.25,8,1,14,0.00
2013-2-1,72,52,38,47,41,36,96,71,32,30.44,30.30,8,1,10,0.00
2013-2-2,76,53,36,57,47,34,98,81,47,30.33,30.21,6,0,9,0.00
2013-2-3,75,53,37,49,40,31,97,70,22,30.37,30.13,6,0,9,0.00
2013-2-4,67,54,40,64,52,38,97,92,82,30.13,29.90,3,0,6,0.03
2013-2-5,80,66,57,67,61,55,99,86,57,30.06,29.93,5,0,7,0.00
2013-2-6,63,61,59,63,60,57,100,97,95,30.11,29.93,6,0,10,0.35
2013-2-7,66,61,53,62,59,52,100,93,83,30.03,29.93,5,0,5,0.00
2013-2-8,63,58,49,60,54,46,98,85,72,30.22,30.02,9,1,12,0.00
2013-2-9,66,55,42,63,52,41,97,90,82,30.21,29.93,11,1,13,0.01
2013-2-10,72,65,59,69,62,57,97,92,86,30.02,29.82,14,2,16,0.61
2013-2-11,60,53,51,59,51,49,98,95,82,30.17,30.01,10,1,11,0.78
2013-2-12,60,55,50,59,54,49,98,95,89,30.05,29.84,11,1,11,0.05
2013-2-13,62,50,35,49,42,33,94,77,49,30.16,29.99,11,2,15,0.00
2013-2-14,71,45,28,48,36,27,97,76,31,30.22,30.09,6,0,7,0.00
2013-2-15,70,48,30,48,38,29,97,72,38,30.37,30.16,11,2,14,0.00
2013-2-16,62,44,28,35,29,23,93,62,27,30.48,30.30,14,1,17,0.00
2013-2-17,71,48,28,50,38,26,97,72,33,30.32,30.13,15,2,16,0.00
2013-2-18,70,62,47,64,58,45,97,87,73,30.13,29.86,18,2,20,1.03
2013-2-19,71,52,39,52,41,32,97,72,25,30.32,30.10,10,1,12,0.01
2013-2-20,62,52,45,49,40,29,86,65,34,30.23,29.89,8,1,13,0.00
2013-2-21,76,63,51,71,60,49,97,90,75,29.92,29.69,17,2,22,0.06
2013-2-22,65,56,50,55,50,47,95,82,66,30.05,29.89,8,1,10,0.00
2013-2-23,71,55,42,54,47,40,92,76,45,30.06,29.93,8,1,10,0.00
2013-2-24,73,54,35,54,46,34,97,79,47,30.02,29.72,7,0,9,0.00
2013-2-25,76,62,47,68,49,28,97,67,21,29.74,29.48,16,2,22,0.00
2013-2-26,64,50,41,43,37,33,89,62,39,29.98,29.73,22,3,22,0.00
2013-2-27,73,51,34,52,38,31,96,67,30,30.19,29.96,15,2,17,0.00
2013-2-28,57,43,32,38,32,28,92,66,38,30.32,30.17,10,1,13,0.00
2013-3-1,64,48,26,39,31,25,96,57,27,30.32,30.17,18,2,20,0.00
2013-3-2,54,40,28,32,28,24,92,67,32,30.40,30.26,13,2,19,0.00
2013-3-3,69,44,24,42,31,22,96,67,28,30.34,30.06,11,1,13,0.00
2013-3-4,78,60,41,62,54,39,97,80,57,30.07,29.81,20,4,22,0.00
2013-3-5,67,64,57,62,58,43,90,80,50,30.17,29.84,15,4,20,0.00
2013-3-6,69,46,26,37,29,21,94,61,16,30.47,30.29,3,1,9,0.00
2013-3-7,71,50,30,45,38,28,95,67,33,30.37,30.24,3,1,9,0.00
2013-3-8,74,57,38,60,49,36,95,77,55,30.30,30.15,4,1,10,0.00
2013-3-9,75,69,55,64,62,52,94,79,66,30.14,29.86,17,4,20,0.00
2013-3-10,68,61,50,64,56,40,97,83,61,30.09,29.76,13,2,17,0.39
2013-3-11,63,49,34,41,35,29,88,61,31,30.16,30.01,12,2,16,0.00
2013-3-12,62,34,28,45,30,26,97,87,35,30.27,30.13,4,0,5,0.00
2013-3-13,56,47,41,39,38,36,83,71,52,30.41,30.39,3,0,5,0.00
2013-3-14,76,53,33,49,40,31,96,66,30,30.47,30.30,10,1,15,0.00
2013-3-15,80,58,36,60,47,34,97,71,32,30.32,30.09,12,2,17,0.00
2013-3-16,81,65,51,63,57,49,97,78,46,30.09,29.88,14,2,17,0.01
2013-3-17,81,68,54,67,62,52,98,83,58,29.93,29.75,15,2,18,0.00
2013-3-18,90,76,67,70,67,63,95,76,44,29.86,29.76,13,2,13,0.00
2013-3-19,84,68,50,62,54,44,82,63,38,30.06,29.93,3,1,14,0.00
2013-3-20,77,61,46,55,45,34,94,62,21,30.25,30.01,12,2,15,0.18
2013-3-21,73,58,42,59,49,40,95,74,41,30.09,29.77,18,2,21,0.00
2013-3-22,85,72,63,70,66,58,94,82,59,29.80,29.68,16,2,19,0.00
2013-3-23,74,68,63,68,65,61,96,91,81,29.80,29.62,5,0,7,0.00
2013-3-24,65,58,52,61,50,34,95,78,37,30.04,29.68,18,3,21,0.01
2013-3-25,63,49,30,32,28,21,93,49,22,30.41,30.18,13,2,19,0.00
2013-3-26,63,43,26,35,26,21,93,60,21,30.53,30.36,11,1,18,0.00
2013-3-27,72,49,27,45,35,25,100,65,29,30.46,30.25,11,1,13,0.00
2013-3-28,75,60,49,58,51,44,89,75,54,30.34,30.22,10,1,12,0.00
2013-3-29,77,62,47,62,56,45,97,80,57,30.29,30.17,10,1,13,0.00
2013-3-30,79,67,57,66,61,55,96,81,61,30.19,30.01,13,1,14,0.00
2013-3-31,80,65,59,68,62,57,97,91,64,30.03,29.92,10,1,16,0.39
2013-4-1,85,67,59,68,62,58,98,85,53,30.13,29.99,6,0,6,0.04
2013-4-2,79,65,55,66,60,54,97,86,61,30.07,29.92,8,0,10,0.01
2013-4-3,64,55,50,63,53,48,97,92,81,30.12,29.84,11,1,12,0.02
2013-4-4,53,49,46,48,45,44,99,88,76,30.21,30.05,9,1,12,0.01
2013-4-5,78,53,41,52,44,39,95,76,38,30.28,30.16,6,1,7,0.01
2013-4-6,75,63,42,59,56,40,97,79,54,30.15,30.00,10,2,20,0.00
2013-4-7,79,64,53,65,58,52,99,84,57,30.05,29.91,12,1,14,0.00
2013-4-8,82,72,66,67,65,64,93,80,57,29.94,29.85,6,3,18,0.01
2013-4-9,83,74,68,72,69,65,92,84,65,29.88,29.80,6,3,20,0.00
2013-4-10,79,67,48,72,64,47,96,90,80,29.89,29.76,5,3,16,0.00
2013-4-11,70,52,42,55,46,42,97,84,45,29.96,29.82,4,2,16,0.03
2013-4-12,83,58,38,53,45,37,98,70,27,30.06,29.91,2,0,6,0.00
2013-4-13,83,61,41,58,51,40,97,74,38,30.05,29.86,3,1,10,0.00
2013-4-14,85,66,52,67,62,51,97,87,53,29.86,29.70,5,1,11,0.00
2013-4-15,87,74,59,73,68,58,98,84,61,29.91,29.78,11,2,12,0.00
2013-4-16,85,76,72,75,72,71,98,89,67,30.01,29.88,12,1,13,0.00
2013-4-17,82,75,72,76,72,71,96,91,78,30.01,29.82,12,2,16,0.00
2013-4-18,77,66,49,73,63,46,96,91,84,30.09,29.76,14,3,17,0.00
2013-4-19,67,51,39,47,39,34,94,67,31,30.28,30.08,11,2,14,0.00
2013-4-20,74,52,31,47,39,30,98,68,28,30.31,30.12,9,1,12,0.00
2013-4-21,78,57,38,58,48,36,98,76,39,30.25,30.10,7,0,9,0.00
2013-4-22,83,62,44,59,52,43,100,74,38,30.17,29.98,8,1,9,0.00
2013-4-23,80,67,52,71,63,50,100,88,64,30.04,29.94,9,1,12,0.00
2013-4-24,72,59,48,68,52,45,96,79,49,30.26,30.00,11,2,14,0.00
2013-4-25,77,63,51,57,51,46,89,68,36,30.37,30.24,7,1,8,0.00
2013-4-26,80,69,57,70,62,50,95,81,62,30.27,30.14,9,1,13,0.00
2013-4-27,83,72,65,73,68,64,98,88,68,30.17,30.02,9,1,12,0.00
2013-4-28,83,70,59,68,63,58,98,80,50,30.07,29.92,8,0,9,0.00
2013-4-29,88,69,53,72,62,-100,98,83,49,30.00,29.86,7,-1,11,0.00
2013-4-30,88,72,63,72,66,62,98,85,47,29.90,29.77,7,0,12,0.00
2013-5-1,87,72,66,73,68,64,98,88,57,29.93,29.84,5,-1,6,0.00
2013-5-2,79,65,50,68,60,45,98,86,65,30.18,29.92,16,2,17,0.00
2013-5-3,68,53,40,46,40,32,92,65,28,30.19,30.06,17,3,23,0.00
2013-5-4,81,57,32,50,41,31,97,63,24,30.12,29.87,10,1,16,0.00
2013-5-5,71,55,40,50,44,38,99,71,41,30.12,29.98,12,1,13,0.00
2013-5-6,82,60,38,59,50,37,97,74,39,30.13,29.99,10,0,10,0.00
2013-5-7,91,69,50,65,56,49,97,70,31,30.10,29.97,6,0,9,0.00
2013-5-8,85,69,53,68,61,52,98,79,48,30.11,30.01,10,1,15,0.00
2013-5-9,77,69,59,73,67,58,98,93,83,30.05,29.90,9,1,11,0.05
2013-5-10,67,67,66,66,66,66,98,98,98,29.97,29.90,3,0,5,0.09
2013-5-11,87,71,60,72,65,60,99,85,51,30.13,29.93,4,0,9,0.04
2013-5-12,80,64,52,66,58,51,100,83,51,30.22,30.11,7,0,9,0.00
2013-5-13,84,61,44,60,51,43,98,75,29,30.34,30.21,5,0,7,0.00
2013-5-14,85,69,50,68,57,49,98,70,37,30.27,30.14,10,1,13,0.00
2013-5-15,77,67,58,70,64,56,98,89,73,30.19,29.96,11,1,13,0.00
2013-5-16,84,73,66,73,69,65,98,87,66,30.01,29.86,14,2,18,0.00
2013-5-17,88,76,68,78,72,68,98,87,68,29.99,29.89,11,1,16,0.00
2013-5-18,91,79,73,77,72,70,94,81,57,30.01,29.93,11,2,14,0.00
2013-5-19,91,79,72,75,72,70,95,81,55,29.96,29.86,16,2,18,0.00
2013-5-20,88,80,75,77,74,72,94,84,64,29.95,29.83,12,2,16,0.00
2013-5-21,88,79,72,77,74,72,97,85,64,29.90,29.75,13,2,15,0.00
2013-5-22,89,75,66,79,72,65,99,89,67,29.97,29.81,11,0,11,0.00
2013-5-23,92,78,69,80,74,68,99,87,60,30.09,29.95,7,1,10,0.00
2013-5-24,91,76,68,81,72,68,99,91,64,30.17,30.04,6,0,7,0.00
2013-5-25,87,76,66,78,72,66,99,89,70,30.19,30.10,8,0,9,0.00
2013-5-26,90,77,68,79,72,68,98,86,61,30.15,30.05,10,1,12,0.00
2013-5-27,88,76,64,76,70,63,99,83,58,30.09,29.96,11,1,13,0.00
2013-5-28,88,77,68,75,70,67,98,81,55,30.01,29.91,12,2,16,0.00
2013-5-29,86,76,69,76,72,68,98,87,69,29.96,29.85,11,1,13,0.00
2013-5-30,86,79,72,80,75,71,98,88,73,29.94,29.85,11,1,16,0.00
2013-5-31,92,81,76,81,76,74,98,86,68,29.94,29.87,11,2,14,0.00
2013-6-1,94,82,74,81,76,73,96,83,61,29.93,29.86,12,2,14,0.00
2013-6-2,86,75,67,76,72,66,99,90,66,30.08,29.91,7,0,7,0.00
2013-6-3,93,75,61,75,68,61,99,81,46,29.98,29.87,6,0,7,0.00
2013-6-4,95,79,66,78,72,66,98,81,48,29.96,29.84,6,0,8,0.00
2013-6-5,98,81,66,83,74,66,99,83,50,29.93,29.76,5,0,6,0.00
2013-6-6,94,76,66,81,72,65,98,91,61,29.91,29.77,12,0,14,0.00
2013-6-7,87,72,63,74,67,62,99,87,55,29.96,29.88,6,0,7,0.00
2013-6-8,90,75,62,78,69,61,99,83,56,29.96,29.85,7,0,7,0.00
2013-6-9,91,74,67,80,71,67,98,94,66,30.00,29.87,7,0,7,0.00
2013-6-10,96,78,67,83,73,66,99,86,52,30.02,29.96,8,0,9,0.00
2013-6-11,95,80,68,84,75,68,99,87,62,30.08,30.00,9,0,9,0.00
2013-6-12,96,81,69,83,75,68,99,83,55,30.10,29.98,9,0,9,0.00
2013-6-13,99,83,71,83,76,70,99,83,50,30.10,29.92,5,0,6,0.00
2013-6-14,99,84,71,85,78,71,99,84,52,30.05,29.88,10,0,10,0.00
2013-6-15,98,80,69,86,76,69,99,86,59,30.02,29.92,4,0,6,0.00
2013-6-16,97,81,69,83,75,68,99,83,53,30.07,29.95,7,0,7,0.00
2013-6-17,96,82,70,80,75,70,98,81,52,30.04,29.91,9,0,10,0.00
2013-6-18,96,79,72,79,75,71,98,87,51,30.01,29.92,8,0,10,0.00
2013-6-19,93,79,71,82,75,70,99,89,61,30.03,29.96,5,0,8,0.00
2013-6-20,96,81,70,82,75,70,99,83,54,30.12,30.01,8,0,10,0.00
2013-6-21,98,80,68,81,74,68,99,84,51,30.14,30.05,7,0,8,0.00
2013-6-22,97,80,68,84,74,68,99,85,54,30.10,29.98,8,0,11,0.00
2013-6-23,96,81,68,81,74,68,98,82,55,30.07,29.97,9,1,10,0.00
2013-6-24,95,81,70,80,74,69,98,81,55,30.10,30.01,11,1,13,0.00
2013-6-25,96,82,72,80,75,71,98,81,52,30.08,29.97,10,1,11,0.00
2013-6-26,97,83,71,80,74,68,98,78,41,30.05,29.94,8,1,8,0.00
2013-6-27,102,82,68,80,74,67,98,79,41,30.06,29.94,7,0,8,0.00
2013-6-28,101,84,70,81,75,70,98,77,40,30.01,29.81,7,0,7,0.00
2013-6-29,104,86,72,81,73,69,96,70,36,29.85,29.72,8,0,10,0.00
2013-6-30,99,80,62,74,66,60,97,68,32,29.88,29.79,9,0,9,0.00
2013-7-1,90,74,59,74,66,58,96,77,45,29.97,29.88,5,0,6,0.00
2013-7-2,96,78,61,73,66,60,98,71,36,30.04,29.95,5,0,6,0.00
2013-7-3,94,76,64,73,67,62,97,76,40,30.06,29.95,5,0,6,0.00
2013-7-4,97,78,62,75,69,61,97,76,34,30.02,29.93,5,0,6,0.00
2013-7-5,97,80,64,77,70,63,98,74,41,30.01,29.90,6,0,9,0.00
2013-7-6,98,81,69,78,72,68,98,79,45,29.99,29.88,7,0,7,0.00
2013-7-7,92,78,71,82,75,70,98,89,65,30.04,29.95,10,0,10,0.01
2013-7-8,93,79,71,80,75,71,99,89,59,30.17,30.03,9,0,9,0.00
2013-7-9,100,82,69,80,74,68,99,80,45,30.18,30.06,9,1,10,0.00
2013-7-10,100,83,71,80,75,70,98,78,46,30.12,29.96,7,0,9,0.00
2013-7-11,98,83,72,82,76,71,98,80,49,30.03,29.92,6,0,7,0.00
2013-7-12,102,85,72,80,75,71,97,76,45,30.00,29.87,7,0,7,0.00
2013-7-13,103,83,71,79,71,59,97,71,28,29.99,29.87,6,0,10,0.00
2013-7-14,90,76,68,79,71,65,98,84,64,30.00,29.91,5,0,7,0.02
2013-7-15,92,76,70,82,73,70,99,93,66,30.10,29.94,6,0,12,0.01
2013-7-16,91,75,70,81,73,70,99,94,67,30.17,30.07,5,0,6,0.00
2013-7-17,89,77,72,82,74,70,98,93,72,30.24,30.13,6,0,7,0.00
2013-7-18,96,80,68,81,74,67,98,82,52,30.18,30.01,5,0,6,0.00
2013-7-19,89,77,68,79,73,67,97,87,64,30.10,29.97,6,0,9,0.00
2013-7-20,91,76,69,80,73,68,98,91,63,30.02,29.92,6,0,9,0.00
2013-7-21,90,78,70,81,74,69,98,89,72,30.02,29.95,8,0,10,0.00
2013-7-22,94,82,73,85,76,71,98,85,61,30.06,29.97,8,1,9,0.00
2013-7-23,96,83,72,81,76,71,98,82,54,30.07,29.91,8,1,10,0.00
2013-7-24,96,83,70,82,76,69,98,82,56,30.05,29.89,7,0,8,0.00
2013-7-25,100,85,75,85,78,74,96,80,53,30.06,29.96,6,0,7,0.00
2013-7-26,95,84,73,81,76,72,97,80,54,30.08,29.93,9,1,9,0.00
2013-7-27,92,83,75,81,77,72,96,84,66,29.97,29.89,7,0,10,0.00
2013-7-28,93,79,71,82,75,69,97,89,68,30.01,29.94,6,0,6,0.00
2013-7-29,96,82,71,81,74,69,98,81,54,30.11,30.00,9,1,12,0.00
2013-7-30,97,81,68,80,73,66,98,79,47,30.16,30.05,9,1,11,0.00
2013-7-31,99,83,68,81,74,67,98,78,50,30.12,29.96,7,0,8,0.00
2013-8-1,101,85,73,83,77,71,97,78,46,30.05,29.91,5,0,7,0.00
2013-8-2,101,85,73,81,76,71,97,76,45,30.01,29.92,6,0,9,0.00
2013-8-3,99,84,72,82,75,70,97,76,45,30.07,29.98,8,0,10,0.00
2013-8-4,101,85,72,82,76,71,97,77,46,30.12,29.98,10,0,10,0.00
2013-8-5,99,85,72,80,75,71,97,76,44,30.08,29.93,11,1,11,0.00
2013-8-6,100,85,71,81,76,69,97,76,45,30.01,29.88,11,1,12,0.00
2013-8-7,101,85,73,80,75,70,97,76,40,29.98,29.85,10,1,11,0.00
2013-8-8,99,84,73,79,74,71,97,75,44,29.97,29.87,7,1,10,0.00
2013-8-9,104,84,67,81,74,66,98,74,43,30.01,29.88,6,0,7,0.00
2013-8-10,97,82,74,82,76,72,97,85,57,30.08,29.98,7,0,10,0.02
2013-8-11,101,81,70,81,75,69,98,83,48,30.11,30.03,13,0,14,0.00
2013-8-12,99,84,71,81,75,70,98,77,46,30.11,29.97,9,1,14,0.00
2013-8-13,102,86,72,80,75,70,97,73,42,30.07,29.90,8,0,10,0.00
2013-8-14,96,82,74,81,76,73,96,84,54,30.03,29.91,8,0,9,0.02
2013-8-15,90,77,70,79,74,69,97,91,65,30.06,29.94,4,0,4,0.00
2013-8-16,96,79,67,79,72,66,97,82,50,30.03,29.92,6,0,6,0.00
2013-8-17,96,78,67,74,68,64,96,75,38,30.03,29.93,7,0,9,0.00
2013-8-18,95,78,63,77,69,61,98,79,46,30.06,29.98,5,0,7,0.00
2013-8-19,97,79,65,76,68,63,98,74,35,30.08,29.95,7,0,10,0.00
2013-8-20,98,78,66,80,71,64,98,82,43,30.06,29.99,11,0,11,0.00
2013-8-21,100,82,67,80,72,65,98,75,44,30.12,29.99,6,0,7,0.00
2013-8-22,101,83,70,80,74,68,97,76,41,30.10,29.96,6,0,9,0.00
2013-8-23,100,84,70,81,74,68,98,76,45,30.04,29.90,8,0,8,0.00
2013-8-24,100,84,71,78,74,69,97,74,45,30.07,29.96,8,0,14,0.00
2013-8-25,96,81,73,79,74,70,94,80,54,30.14,30.06,8,0,9,0.00
2013-8-26,88,77,72,79,73,70,97,90,69,30.17,30.10,7,0,10,0.00
2013-8-27,97,81,70,78,72,68,98,78,42,30.16,30.03,5,0,8,0.00
2013-8-28,100,83,68,78,72,67,98,73,39,30.12,29.98,5,0,6,0.00
2013-8-29,104,85,70,78,73,68,97,71,35,30.09,29.95,7,0,8,0.00
2013-8-30,100,84,73,81,75,71,97,78,47,30.05,29.90,8,0,9,0.00
2013-8-31,100,83,69,78,72,67,97,73,44,29.98,29.85,7,0,8,0.00
2013-9-1,100,83,68,79,72,66,97,73,41,29.97,29.84,7,0,9,0.00
2013-9-2,104,85,69,80,73,67,97,71,35,30.01,29.85,7,0,8,0.00
2013-9-3,103,83,74,79,74,71,96,77,38,29.99,29.89,10,0,10,0.00
2013-9-4,104,82,70,79,73,68,97,79,40,30.07,29.95,7,0,8,0.01
2013-9-5,101,82,69,81,73,68,98,79,44,30.12,29.99,8,0,14,0.00
2013-9-6,100,82,69,79,74,67,97,79,47,30.11,29.99,8,0,12,0.00
2013-9-7,92,75,70,80,72,68,97,92,65,30.09,29.96,6,0,12,0.00
2013-9-8,98,79,67,80,72,66,98,82,44,30.03,29.92,6,0,7,0.00
2013-9-9,99,80,68,80,72,66,98,80,41,30.04,29.96,8,0,12,0.00
2013-9-10,94,78,68,80,73,66,98,84,57,30.11,30.01,5,0,6,0.00
2013-9-11,100,81,68,80,72,67,98,78,46,30.13,30.01,6,0,9,0.00
2013-9-12,102,82,68,78,70,66,97,73,33,30.07,29.91,8,0,8,0.00
2013-9-13,102,83,66,77,70,64,97,71,35,29.97,29.80,7,0,8,0.00
2013-9-14,100,83,73,77,73,70,94,74,44,29.97,29.85,7,0,8,0.00
2013-9-15,100,81,70,79,73,69,96,78,43,30.05,29.96,12,0,12,0.00
2013-9-16,98,81,70,79,72,68,97,77,42,30.09,29.98,7,0,9,0.00
2013-9-17,97,81,69,80,72,67,97,76,42,30.09,29.95,9,0,9,0.00
2013-9-18,100,80,69,79,73,67,97,82,44,30.04,29.93,6,0,8,0.00
2013-9-19,94,77,72,84,74,70,98,92,57,30.00,29.91,9,0,12,0.00
2013-9-20,77,75,72,77,75,72,99,98,97,29.95,29.76,6,0,10,0.00
2013-9-21,80,72,66,74,70,65,99,95,76,29.86,29.76,10,0,10,0.00
2013-9-22,89,72,60,68,63,58,97,76,40,29.89,29.77,10,0,12,0.00
2013-9-23,93,75,62,77,68,59,94,78,51,29.87,29.77,5,0,7,0.00
2013-9-24,97,79,68,82,74,66,97,85,49,29.90,29.80,7,0,7,0.00
2013-9-25,102,76,62,75,64,51,99,73,21,29.90,29.80,4,0,6,0.00
2013-9-26,97,74,57,78,65,56,99,79,39,29.96,29.85,6,0,7,0.00
2013-9-27,96,77,63,78,70,61,98,81,49,30.01,29.92,6,0,8,0.00
2013-9-28,92,77,66,79,71,64,98,85,60,30.04,29.95,8,0,12,0.00
2013-9-29,82,74,71,78,73,70,98,95,86,30.06,29.93,5,0,12,0.00
2013-9-30,87,75,70,79,73,69,99,92,71,29.94,29.85,5,0,9,0.00
2013-10-1,91,76,69,80,73,68,98,90,66,29.98,29.90,8,0,13,0.00
2013-10-2,89,77,70,80,74,69,98,91,67,30.03,29.93,6,0,6,0.00
2013-10-3,93,78,69,80,73,67,98,87,58,30.01,29.90,6,0,8,0.00
2013-10-4,93,77,67,82,73,66,98,88,64,29.98,29.90,8,0,10,0.00
2013-10-5,97,80,69,81,75,64,98,86,56,29.98,29.85,8,0,9,0.00
2013-10-6,82,65,51,64,56,49,91,75,35,30.13,29.97,9,1,12,0.00
2013-10-7,85,60,45,61,51,44,98,78,36,30.16,30.05,7,0,7,0.00
2013-10-8,51,48,45,49,46,44,94,93,92,30.10,30.08,0,0,0,0.00
2013-11-17,80,74,72,76,72,71,97,94,86,29.96,29.87,2,-15,3,0.00
2013-11-18,82,68,52,72,61,47,98,79,36,30.16,29.97,9,0,9,0.00
2013-11-19,74,56,43,52,47,41,93,73,40,30.21,30.08,7,0,9,0.00
2013-11-20,75,54,38,62,49,36,99,84,50,30.12,29.99,4,0,5,0.00
2013-11-21,78,69,59,72,66,58,97,92,82,30.13,30.03,10,0,10,0.00
2013-11-22,71,60,46,71,59,46,100,97,95,30.29,30.10,9,1,9,0.00
2013-11-23,50,46,42,49,45,39,98,96,88,30.45,30.28,10,1,12,0.00
2013-11-24,51,43,37,39,35,32,93,75,51,30.49,30.34,10,1,15,0.00
2013-11-25,41,39,37,40,38,35,100,95,92,30.35,30.01,10,1,10,0.00
2013-11-26,40,38,36,40,38,35,98,97,97,30.29,30.01,14,1,14,0.00
2013-11-27,52,37,27,37,32,26,97,84,49,30.47,30.28,9,0,9,0.00
2013-11-28,55,36,27,42,32,25,97,85,53,30.56,30.43,6,0,6,0.01
2013-11-29,66,40,25,44,33,23,100,79,37,30.59,30.44,5,0,5,0.02
2013-11-30,70,46,30,56,41,28,98,84,52,30.47,30.27,5,0,6,0.03
2013-12-1,68,56,41,61,53,39,100,91,77,30.28,29.99,6,0,8,0.02
2013-12-2,80,64,54,66,59,52,99,87,59,30.00,29.71,8,0,8,0.00
2013-12-3,82,67,52,70,63,51,98,89,61,29.77,29.64,10,1,11,0.00
2013-12-4,79,72,68,72,70,67,96,91,76,29.85,29.74,10,1,11,0.00
2013-12-5,77,61,41,74,59,39,97,93,81,30.06,29.83,10,1,10,0.00
2013-12-6,42,40,36,42,39,34,97,94,89,30.40,30.00,12,1,14,0.00
2013-12-7,37,36,35,34,33,32,93,90,87,30.45,30.32,8,1,13,0.00
2013-12-8,46,40,36,42,37,33,94,88,81,30.35,30.10,3,0,4,0.00
2013-12-9,46,43,38,45,42,37,97,96,94,30.34,30.10,9,0,9,0.00
2013-12-10,51,39,29,38,34,27,96,83,56,30.50,30.34,12,1,13,0.00
2013-12-11,54,41,28,45,37,27,100,86,64,30.56,30.40,5,0,6,0.18
2013-12-12,59,41,32,43,35,31,96,82,45,30.62,30.41,6,0,7,0.03
2013-12-13,55,46,33,54,44,32,97,90,69,30.41,29.92,3,0,4,0.01
2013-12-14,57,50,41,55,47,34,98,89,77,30.30,29.88,19,2,19,0.00
2013-12-15,60,40,28,42,33,26,96,79,45,30.42,30.30,8,0,9,0.04
2013-12-16,67,41,25,46,34,23,100,79,39,30.40,30.27,5,0,7,0.19
2013-12-17,71,46,28,54,39,26,98,81,40,30.40,30.28,6,0,8,0.32
2013-12-18,72,49,32,58,43,30,100,83,47,30.39,30.19,7,0,9,0.04
2013-12-19,74,59,43,67,56,42,98,92,74,30.19,29.94,14,1,15,0.01
2013-12-20,76,71,68,72,69,67,97,94,87,29.97,29.81,12,2,16,0.01
2013-12-21,73,66,52,72,65,51,98,97,90,29.85,29.57,15,2,24,0.01
2013-12-22,58,50,34,58,47,31,99,91,80,30.36,29.83,11,1,13,0.00
2013-12-23,54,38,28,38,32,26,95,82,47,30.58,30.35,8,1,12,0.00
2013-12-24,61,36,24,40,30,22,97,81,37,30.62,30.38,6,0,7,0.04
2013-12-25,65,44,27,47,37,25,97,80,38,30.43,30.32,6,0,7,0.08
2013-12-26,66,50,40,49,43,38,99,80,45,30.46,30.33,5,0,6,0.02
2013-12-27,56,47,40,45,42,39,100,84,59,30.49,30.35,5,0,8,0.00
2013-12-28,57,46,37,47,41,35,96,84,55,30.36,30.07,6,0,6,0.01
2013-12-29,69,48,31,52,41,29,100,80,40,30.20,30.04,4,0,6,0.01
2013-12-30,49,43,37,47,37,34,94,82,75,30.45,30.18,8,1,10,0.02
2013-12-31,51,42,36,42,38,34,95,86,64,30.48,30.31,6,0,6,0.00
2014-1-1,65,52,42,57,49,40,94,90,75,30.32,30.06,8,0,10,0.01
2014-1-2,56,45,30,55,35,26,96,71,39,30.47,30.09,16,2,17,0.00